sensor_id;sensor_type;location;lat;lon;timestamp;temperature;humidity
23305;DHT22;11821;51.456;8.844;2023-06-22T08:31:32;22.90;99.90
23305;DHT22;11821;51.456;8.844;2023-06-22T08:41:29;28.70;99.90
23305;DHT22;11821;51.456;8.844;2023-06-22T08:43:55;29.00;99.90
23305;DHT22;11821;51.456;8.844;2023-06-22T08:46:22;29.30;99.90
23305;DHT22;11821;51.456;8.844;2023-06-22T08:48:56;29.60;99.90
23305;DHT22;11821;51.456;8.844;2023-06-22T08:56:19;29.70;99.90
23305;DHT22;11821;51.456;8.844;2023-06-22T08:58:45;30.30;99.90
23305;DHT22;11821;51.456;8.844;2023-06-22T09:01:12;30.40;99.90
23305;DHT22;11821;51.456;8.844;2023-06-22T09:03:38;30.20;99.90
23305;DHT22;11821;51.456;8.844;2023-06-22T09:06:04;30.10;99.90
23305;DHT22;11821;51.456;8.844;2023-06-22T09:08:31;30.00;99.90
23305;DHT22;11821;51.456;8.844;2023-06-22T09:10:57;30.10;99.90
23305;DHT22;11821;51.456;8.844;2023-06-22T09:13:23;30.30;99.90
23305;DHT22;11821;51.456;8.844;2023-06-22T09:15:49;30.10;99.90
23305;DHT22;11821;51.456;8.844;2023-06-22T09:18:16;30.40;99.90
23305;DHT22;11821;51.456;8.844;2023-06-22T09:20:43;30.40;99.90
23305;DHT22;11821;51.456;8.844;2023-06-22T09:23:09;30.40;99.90
23305;DHT22;11821;51.456;8.844;2023-06-22T09:25:35;30.70;99.90
23305;DHT22;11821;51.456;8.844;2023-06-22T09:28:02;30.70;99.90
23305;DHT22;11821;51.456;8.844;2023-06-22T09:30:28;30.50;99.90
23305;DHT22;11821;51.456;8.844;2023-06-22T09:32:54;30.60;99.90
23305;DHT22;11821;51.456;8.844;2023-06-22T09:35:21;30.80;99.90
23305;DHT22;11821;51.456;8.844;2023-06-22T09:37:47;30.90;99.90
23305;DHT22;11821;51.456;8.844;2023-06-22T09:40:13;31.00;99.90
23305;DHT22;11821;51.456;8.844;2023-06-22T09:42:42;31.00;99.90
23305;DHT22;11821;51.456;8.844;2023-06-22T09:45:09;30.70;99.90
23305;DHT22;11821;51.456;8.844;2023-06-22T09:47:36;30.60;99.90
23305;DHT22;11821;51.456;8.844;2023-06-22T09:50:02;30.80;99.90
23305;DHT22;11821;51.456;8.844;2023-06-22T09:52:29;31.00;99.90
23305;DHT22;11821;51.456;8.844;2023-06-22T09:54:55;31.30;99.90
23305;DHT22;11821;51.456;8.844;2023-06-22T09:57:21;31.90;99.90
23305;DHT22;11821;51.456;8.844;2023-06-22T09:59:48;32.00;99.90
23305;DHT22;11821;51.456;8.844;2023-06-22T10:02:14;32.10;99.90
23305;DHT22;11821;51.456;8.844;2023-06-22T10:04:40;31.70;99.90
23305;DHT22;11821;51.456;8.844;2023-06-22T10:07:07;31.80;99.90
23305;DHT22;11821;51.456;8.844;2023-06-22T10:09:33;31.90;99.90
23305;DHT22;11821;51.456;8.844;2023-06-22T10:12:00;31.70;99.90
23305;DHT22;11821;51.456;8.844;2023-06-22T10:14:26;31.60;99.90
23305;DHT22;11821;51.456;8.844;2023-06-22T10:16:54;31.50;99.90
23305;DHT22;11821;51.456;8.844;2023-06-22T10:19:21;31.50;99.90
23305;DHT22;11821;51.456;8.844;2023-06-22T10:21:48;31.70;99.90
23305;DHT22;11821;51.456;8.844;2023-06-22T10:24:14;31.60;99.90
23305;DHT22;11821;51.456;8.844;2023-06-22T10:26:40;31.70;99.90
23305;DHT22;11821;51.456;8.844;2023-06-22T10:29:07;31.80;99.90
23305;DHT22;11821;51.456;8.844;2023-06-22T10:31:33;31.80;99.90
23305;DHT22;11821;51.456;8.844;2023-06-22T10:33:59;31.90;99.90
23305;DHT22;11821;51.456;8.844;2023-06-22T10:36:26;31.60;99.90
23305;DHT22;11821;51.456;8.844;2023-06-22T10:38:52;31.70;99.90
23305;DHT22;11821;51.456;8.844;2023-06-22T10:41:19;31.90;99.90
23305;DHT22;11821;51.456;8.844;2023-06-22T10:43:46;31.80;99.90
23305;DHT22;11821;51.456;8.844;2023-06-22T10:46:13;32.10;99.90
23305;DHT22;11821;51.456;8.844;2023-06-22T10:48:39;32.60;99.90
23305;DHT22;11821;51.456;8.844;2023-06-22T10:51:05;32.90;99.90
23305;DHT22;11821;51.456;8.844;2023-06-22T10:53:32;33.00;99.90
23305;DHT22;11821;51.456;8.844;2023-06-22T10:55:58;32.90;99.90
23305;DHT22;11821;51.456;8.844;2023-06-22T10:58:24;32.80;99.90
23305;DHT22;11821;51.456;8.844;2023-06-22T11:00:51;32.60;99.90
23305;DHT22;11821;51.456;8.844;2023-06-22T11:03:17;32.70;99.90
23305;DHT22;11821;51.456;8.844;2023-06-22T11:05:43;32.70;99.90
23305;DHT22;11821;51.456;8.844;2023-06-22T11:08:10;32.80;99.90
23305;DHT22;11821;51.456;8.844;2023-06-22T11:10:36;32.80;99.90
23305;DHT22;11821;51.456;8.844;2023-06-22T11:13:02;32.90;99.90
23305;DHT22;11821;51.456;8.844;2023-06-22T11:15:30;32.70;99.90
23305;DHT22;11821;51.456;8.844;2023-06-22T11:17:56;32.50;99.90
23305;DHT22;11821;51.456;8.844;2023-06-22T11:20:22;32.50;99.90
23305;DHT22;11821;51.456;8.844;2023-06-22T11:22:49;32.50;99.90
23305;DHT22;11821;51.456;8.844;2023-06-22T11:25:15;32.70;99.90
23305;DHT22;11821;51.456;8.844;2023-06-22T11:27:41;32.70;99.90
23305;DHT22;11821;51.456;8.844;2023-06-22T11:30:08;32.50;99.90
23305;DHT22;11821;51.456;8.844;2023-06-22T11:32:35;32.30;99.90
23305;DHT22;11821;51.456;8.844;2023-06-22T11:35:01;31.90;99.90
23305;DHT22;11821;51.456;8.844;2023-06-22T11:37:28;31.80;99.90
23305;DHT22;11821;51.456;8.844;2023-06-22T11:39:54;31.50;99.90
23305;DHT22;11821;51.456;8.844;2023-06-22T11:42:21;31.50;99.90
23305;DHT22;11821;51.456;8.844;2023-06-22T11:44:49;31.60;99.90
23305;DHT22;11821;51.456;8.844;2023-06-22T11:47:16;31.40;99.90
23305;DHT22;11821;51.456;8.844;2023-06-22T11:49:42;31.10;99.90
23305;DHT22;11821;51.456;8.844;2023-06-22T11:52:08;31.00;99.90
23305;DHT22;11821;51.456;8.844;2023-06-22T11:54:34;30.80;99.90
23305;DHT22;11821;51.456;8.844;2023-06-22T11:57:01;30.70;99.90
23305;DHT22;11821;51.456;8.844;2023-06-22T11:59:27;30.50;99.90
23305;DHT22;11821;51.456;8.844;2023-06-22T12:36:07;30.40;99.90
23305;DHT22;11821;51.456;8.844;2023-06-22T12:38:34;29.80;99.90
23305;DHT22;11821;51.456;8.844;2023-06-22T12:41:00;29.60;99.90
23305;DHT22;11821;51.456;8.844;2023-06-22T12:43:26;29.50;99.90
23305;DHT22;11821;51.456;8.844;2023-06-22T12:45:52;29.50;99.90
23305;DHT22;11821;51.456;8.844;2023-06-22T12:48:19;29.50;99.90
23305;DHT22;11821;51.456;8.844;2023-06-22T12:50:46;29.50;99.90
23305;DHT22;11821;51.456;8.844;2023-06-22T12:53:13;29.50;99.90
23305;DHT22;11821;51.456;8.844;2023-06-22T12:55:40;29.30;99.90
23305;DHT22;11821;51.456;8.844;2023-06-22T12:58:06;29.60;99.90
23305;DHT22;11821;51.456;8.844;2023-06-22T13:00:32;29.80;99.90
23305;DHT22;11821;51.456;8.844;2023-06-22T13:02:59;29.80;99.90
23305;DHT22;11821;51.456;8.844;2023-06-22T13:05:25;29.80;99.90
23305;DHT22;11821;51.456;8.844;2023-06-22T13:07:51;29.70;99.90
23305;DHT22;11821;51.456;8.844;2023-06-22T13:10:17;29.60;99.90
23305;DHT22;11821;51.456;8.844;2023-06-22T13:12:44;29.50;99.90
23305;DHT22;11821;51.456;8.844;2023-06-22T13:15:10;29.60;99.90
23305;DHT22;11821;51.456;8.844;2023-06-22T13:17:36;29.70;99.90
23305;DHT22;11821;51.456;8.844;2023-06-22T13:20:03;29.40;99.90
23305;DHT22;11821;51.456;8.844;2023-06-22T13:22:33;29.50;99.90
23305;DHT22;11821;51.456;8.844;2023-06-22T13:25:00;29.50;99.90
23305;DHT22;11821;51.456;8.844;2023-06-22T13:27:27;29.40;99.90
23305;DHT22;11821;51.456;8.844;2023-06-22T13:29:53;29.50;99.90
23305;DHT22;11821;51.456;8.844;2023-06-22T13:32:19;29.40;99.90
23305;DHT22;11821;51.456;8.844;2023-06-22T13:34:46;29.30;99.90
23305;DHT22;11821;51.456;8.844;2023-06-22T13:37:12;29.20;99.90
23305;DHT22;11821;51.456;8.844;2023-06-22T13:39:38;29.10;99.90
23305;DHT22;11821;51.456;8.844;2023-06-22T13:42:05;29.00;99.90
23305;DHT22;11821;51.456;8.844;2023-06-22T13:44:31;28.80;99.90
23305;DHT22;11821;51.456;8.844;2023-06-22T13:46:58;28.70;99.90
23305;DHT22;11821;51.456;8.844;2023-06-22T13:49:24;28.50;99.90
23305;DHT22;11821;51.456;8.844;2023-06-22T13:52:19;28.40;99.90
23305;DHT22;11821;51.456;8.844;2023-06-22T13:54:46;28.20;99.90
23305;DHT22;11821;51.456;8.844;2023-06-22T13:57:12;27.90;99.90
23305;DHT22;11821;51.456;8.844;2023-06-22T13:59:38;27.60;99.90
23305;DHT22;11821;51.456;8.844;2023-06-22T14:02:05;27.50;99.90
23305;DHT22;11821;51.456;8.844;2023-06-22T14:04:31;27.40;99.90
23305;DHT22;11821;51.456;8.844;2023-06-22T14:06:58;27.40;99.90
23305;DHT22;11821;51.456;8.844;2023-06-22T14:09:24;27.10;99.90
23305;DHT22;11821;51.456;8.844;2023-06-22T14:11:51;26.70;99.90
23305;DHT22;11821;51.456;8.844;2023-06-22T14:14:17;26.20;99.90
23305;DHT22;11821;51.456;8.844;2023-06-22T14:16:45;26.00;99.90
23305;DHT22;11821;51.456;8.844;2023-06-22T14:19:11;26.20;99.90
23305;DHT22;11821;51.456;8.844;2023-06-22T14:21:38;26.30;99.90
23305;DHT22;11821;51.456;8.844;2023-06-22T14:24:04;26.40;99.90
23305;DHT22;11821;51.456;8.844;2023-06-22T14:26:30;26.40;99.90
23305;DHT22;11821;51.456;8.844;2023-06-22T14:28:57;26.30;99.90
23305;DHT22;11821;51.456;8.844;2023-06-22T14:31:23;26.30;99.90
23305;DHT22;11821;51.456;8.844;2023-06-22T14:33:49;26.30;99.90
23305;DHT22;11821;51.456;8.844;2023-06-22T14:36:16;26.40;99.90
23305;DHT22;11821;51.456;8.844;2023-06-22T14:38:46;26.40;99.90
23305;DHT22;11821;51.456;8.844;2023-06-22T14:41:12;26.40;99.90
23305;DHT22;11821;51.456;8.844;2023-06-22T14:43:42;26.50;99.90
23305;DHT22;11821;51.456;8.844;2023-06-22T14:46:09;26.60;99.90
23305;DHT22;11821;51.456;8.844;2023-06-22T14:48:35;26.50;99.90
23305;DHT22;11821;51.456;8.844;2023-06-22T14:51:01;26.50;99.90
23305;DHT22;11821;51.456;8.844;2023-06-22T14:53:28;26.50;99.90
23305;DHT22;11821;51.456;8.844;2023-06-22T14:55:54;26.40;99.90
23305;DHT22;11821;51.456;8.844;2023-06-22T14:58:21;26.40;99.90
23305;DHT22;11821;51.456;8.844;2023-06-22T15:00:47;26.30;99.90
23305;DHT22;11821;51.456;8.844;2023-06-22T15:03:14;26.20;99.90
23305;DHT22;11821;51.456;8.844;2023-06-22T15:05:47;26.00;99.90
23305;DHT22;11821;51.456;8.844;2023-06-22T15:08:13;25.80;99.90
23305;DHT22;11821;51.456;8.844;2023-06-22T15:10:39;25.70;99.90
23305;DHT22;11821;51.456;8.844;2023-06-22T15:13:06;25.70;99.90
23305;DHT22;11821;51.456;8.844;2023-06-22T15:15:32;25.80;99.90
23305;DHT22;11821;51.456;8.844;2023-06-22T15:17:59;25.70;99.90
23305;DHT22;11821;51.456;8.844;2023-06-22T15:20:26;25.50;99.90
23305;DHT22;11821;51.456;8.844;2023-06-22T15:22:53;25.40;99.90
23305;DHT22;11821;51.456;8.844;2023-06-22T15:25:19;25.30;99.90
23305;DHT22;11821;51.456;8.844;2023-06-22T15:27:45;25.30;99.90
23305;DHT22;11821;51.456;8.844;2023-06-22T15:30:12;25.30;99.90
23305;DHT22;11821;51.456;8.844;2023-06-22T15:32:38;25.30;99.90
23305;DHT22;11821;51.456;8.844;2023-06-22T15:35:05;25.60;99.90
23305;DHT22;11821;51.456;8.844;2023-06-22T15:37:31;25.70;99.90
23305;DHT22;11821;51.456;8.844;2023-06-22T15:39:57;25.80;99.90
23305;DHT22;11821;51.456;8.844;2023-06-22T15:42:24;25.90;99.90
23305;DHT22;11821;51.456;8.844;2023-06-22T15:44:51;26.10;99.90
23305;DHT22;11821;51.456;8.844;2023-06-22T15:47:17;26.00;99.90
23305;DHT22;11821;51.456;8.844;2023-06-22T15:49:48;25.80;99.90
23305;DHT22;11821;51.456;8.844;2023-06-22T15:52:14;25.90;99.90
23305;DHT22;11821;51.456;8.844;2023-06-22T15:54:45;25.80;99.90
23305;DHT22;11821;51.456;8.844;2023-06-22T15:57:12;25.70;99.90
23305;DHT22;11821;51.456;8.844;2023-06-22T15:59:40;25.60;99.90
23305;DHT22;11821;51.456;8.844;2023-06-22T16:02:07;25.50;99.90
23305;DHT22;11821;51.456;8.844;2023-06-22T16:04:34;25.40;99.90
23305;DHT22;11821;51.456;8.844;2023-06-22T16:07:00;25.30;99.90
23305;DHT22;11821;51.456;8.844;2023-06-22T16:09:27;25.20;99.90
23305;DHT22;11821;51.456;8.844;2023-06-22T16:11:55;25.20;99.90
23305;DHT22;11821;51.456;8.844;2023-06-22T16:14:22;25.20;99.90
23305;DHT22;11821;51.456;8.844;2023-06-22T16:16:48;25.00;99.90
23305;DHT22;11821;51.456;8.844;2023-06-22T16:19:15;24.90;99.90
23305;DHT22;11821;51.456;8.844;2023-06-22T16:21:42;25.00;99.90
23305;DHT22;11821;51.456;8.844;2023-06-22T16:24:08;24.90;99.90
23305;DHT22;11821;51.456;8.844;2023-06-22T16:26:39;24.70;99.90
23305;DHT22;11821;51.456;8.844;2023-06-22T16:29:06;24.60;99.90
23305;DHT22;11821;51.456;8.844;2023-06-22T16:31:32;24.80;99.90
23305;DHT22;11821;51.456;8.844;2023-06-22T16:33:59;24.70;99.90
23305;DHT22;11821;51.456;8.844;2023-06-22T16:36:25;24.60;99.90
23305;DHT22;11821;51.456;8.844;2023-06-22T16:38:52;24.60;99.90
23305;DHT22;11821;51.456;8.844;2023-06-22T16:41:18;24.70;99.90
23305;DHT22;11821;51.456;8.844;2023-06-22T16:43:45;24.50;99.90
23305;DHT22;11821;51.456;8.844;2023-06-22T16:46:11;24.50;99.90
23305;DHT22;11821;51.456;8.844;2023-06-22T17:03:29;24.50;99.90
23305;DHT22;11821;51.456;8.844;2023-06-22T17:05:56;24.10;99.90
23305;DHT22;11821;51.456;8.844;2023-06-22T17:08:25;24.30;99.90
23305;DHT22;11821;51.456;8.844;2023-06-22T17:10:52;24.40;99.90
23305;DHT22;11821;51.456;8.844;2023-06-22T17:13:19;24.30;99.90
23305;DHT22;11821;51.456;8.844;2023-06-22T17:15:48;24.30;99.90
23305;DHT22;11821;51.456;8.844;2023-06-22T17:18:16;24.40;99.90
23305;DHT22;11821;51.456;8.844;2023-06-22T17:20:43;24.40;99.90
23305;DHT22;11821;51.456;8.844;2023-06-22T17:23:10;24.50;99.90
23305;DHT22;11821;51.456;8.844;2023-06-22T17:25:36;24.40;99.90
23305;DHT22;11821;51.456;8.844;2023-06-22T17:28:03;24.40;99.90
23305;DHT22;11821;51.456;8.844;2023-06-22T17:30:30;24.40;99.90
23305;DHT22;11821;51.456;8.844;2023-06-22T17:32:57;24.40;99.90
23305;DHT22;11821;51.456;8.844;2023-06-22T17:35:24;24.30;99.90
23305;DHT22;11821;51.456;8.844;2023-06-22T17:37:54;24.30;99.90
23305;DHT22;11821;51.456;8.844;2023-06-22T17:40:22;24.30;99.90
23305;DHT22;11821;51.456;8.844;2023-06-22T17:43:03;24.20;99.90
23305;DHT22;11821;51.456;8.844;2023-06-22T17:45:31;24.00;99.90
23305;DHT22;11821;51.456;8.844;2023-06-22T17:47:57;23.80;99.90
23305;DHT22;11821;51.456;8.844;2023-06-22T17:50:24;23.80;99.90
23305;DHT22;11821;51.456;8.844;2023-06-22T17:52:51;23.70;99.90
23305;DHT22;11821;51.456;8.844;2023-06-22T17:55:22;23.70;99.90
23305;DHT22;11821;51.456;8.844;2023-06-22T17:57:56;23.80;99.90
23305;DHT22;11821;51.456;8.844;2023-06-22T18:00:23;23.80;99.90
23305;DHT22;11821;51.456;8.844;2023-06-22T18:02:50;23.80;99.90
23305;DHT22;11821;51.456;8.844;2023-06-22T18:05:16;23.90;99.90
23305;DHT22;11821;51.456;8.844;2023-06-22T18:07:43;24.00;99.90
23305;DHT22;11821;51.456;8.844;2023-06-22T18:10:10;24.10;99.90
23305;DHT22;11821;51.456;8.844;2023-06-22T18:12:37;24.00;99.90
23305;DHT22;11821;51.456;8.844;2023-06-22T18:15:06;24.00;99.90
23305;DHT22;11821;51.456;8.844;2023-06-22T18:17:33;24.10;99.90
23305;DHT22;11821;51.456;8.844;2023-06-22T18:20:01;24.10;99.90
23305;DHT22;11821;51.456;8.844;2023-06-22T18:22:29;24.10;99.90
23305;DHT22;11821;51.456;8.844;2023-06-22T18:24:57;24.10;99.90
23305;DHT22;11821;51.456;8.844;2023-06-22T18:27:25;24.10;99.90
23305;DHT22;11821;51.456;8.844;2023-06-22T18:29:55;24.10;99.90
23305;DHT22;11821;51.456;8.844;2023-06-22T18:32:21;24.00;99.90
23305;DHT22;11821;51.456;8.844;2023-06-22T18:34:48;24.10;99.90
23305;DHT22;11821;51.456;8.844;2023-06-22T18:37:15;24.00;99.90
23305;DHT22;11821;51.456;8.844;2023-06-22T18:39:49;23.90;99.90
23305;DHT22;11821;51.456;8.844;2023-06-22T18:42:16;23.90;99.90
23305;DHT22;11821;51.456;8.844;2023-06-22T18:44:42;23.70;99.90
23305;DHT22;11821;51.456;8.844;2023-06-22T18:47:09;23.80;99.90
23305;DHT22;11821;51.456;8.844;2023-06-22T18:54:40;23.60;99.90
23305;DHT22;11821;51.456;8.844;2023-06-22T18:57:17;23.80;99.90
23305;DHT22;11821;51.456;8.844;2023-06-22T19:02:34;23.70;99.90
23305;DHT22;11821;51.456;8.844;2023-06-22T19:10:39;23.70;99.90
23305;DHT22;11821;51.456;8.844;2023-06-22T19:15:42;23.40;99.90
23305;DHT22;11821;51.456;8.844;2023-06-22T19:18:23;23.20;99.90
23305;DHT22;11821;51.456;8.844;2023-06-22T19:25:54;23.40;99.90
